PST,Max TemperatureF,Mean TemperatureF,Min TemperatureF,Max Dew PointF,MeanDew PointF,Min DewpointF,Max Humidity, Mean Humidity, Min Humidity, Max Sea Level PressureIn, Mean Sea Level PressureIn, Min Sea Level PressureIn, Max VisibilityMiles, Mean VisibilityMiles, Min VisibilityMiles, Max Wind SpeedMPH, Mean Wind SpeedMPH, Max Gust SpeedMPH,PrecipitationIn, CloudCover, Events, WindDirDegrees
2012-12-1,63,60,57,61,59,57,100,94,88,30.14,30.10,30.07,10,7,2,8,3,,0.15,7,Rain,153
2012-12-2,63,60,57,61,58,56,100,93,88,30.09,30.05,30.00,10,6,1,17,7,31,0.60,8,Rain,167
2012-12-3,64,58,51,55,53,50,100,89,68,30.21,30.15,30.09,10,10,10,13,3,,0.00,4,,308
2012-12-4,64,57,50,55,52,48,100,90,70,30.26,30.22,30.19,10,9,6,13,2,,0.00,7,,289
2012-12-5,68,58,48,61,55,48,100,94,76,30.21,30.14,30.06,10,7,0,13,2,,0.00,5,Fog-Rain,321
2012-12-6,68,60,53,59,55,50,97,83,65,30.06,30.03,29.98,10,10,10,17,8,,0.00,4,,324
2012-12-7,70,62,50,49,45,39,83,58,39,30.05,30.02,29.99,10,10,10,14,5,18,0.00,0,,330
2012-12-8,71,56,42,51,41,32,82,60,31,30.01,29.97,29.93,10,10,10,16,5,,0.00,1,,352
2012-12-9,69,58,48,41,37,31,71,47,35,30.12,30.04,29.98,10,10,10,13,5,23,0.00,0,,303
2012-12-10,75,58,42,48,42,37,86,65,29,30.18,30.11,30.06,10,10,10,12,4,,0.00,0,,71
2012-12-11,68,54,41,52,45,37,94,78,32,30.05,29.99,29.94,10,10,10,13,3,,0.00,3,,143
2012-12-12,57,50,44,52,48,45,100,91,72,29.95,29.90,29.86,10,7,0,13,3,18,0.10,7,Fog-Rain,141
2012-12-13,57,48,39,43,39,34,100,82,44,29.89,29.86,29.81,10,8,0,10,2,,0.00,2,Fog,333
2012-12-14,54,44,35,40,36,33,92,73,48,30.02,29.91,29.84,10,10,10,5,1,,0.00,3,,122
2012-12-15,55,44,34,48,39,31,100,78,51,30.10,30.06,30.04,10,10,9,9,2,,0.05,5,Rain,246
2012-12-16,57,52,48,57,52,43,100,95,76,30.16,30.10,30.04,10,4,0,24,1,77,0.03,8,Fog-Rain,279
2012-12-17,61,57,53,56,54,51,100,94,70,30.15,30.06,29.99,10,6,1,12,4,,0.25,8,Rain,144
2012-12-18,57,50,43,54,41,24,100,70,30,30.16,30.01,29.95,10,10,7,17,8,25,0.00,4,Rain,332
2012-12-19,57,46,35,30,26,16,76,51,19,30.30,30.24,30.16,10,10,10,15,5,,0.00,0,,10
2012-12-20,60,44,28,38,28,20,85,64,22,30.25,30.18,30.11,10,10,10,7,2,,0.00,0,,145
2012-12-21,60,45,30,44,37,27,89,70,49,30.14,30.08,30.04,10,10,10,12,3,,0.00,4,,148
2012-12-22,57,54,51,55,51,44,96,90,71,30.17,30.08,30.01,10,7,2,12,7,18,0.86,8,Rain,148
2012-12-23,59,54,48,58,53,47,100,92,78,30.19,30.10,30.02,10,6,2,17,6,28,0.67,7,Rain,172
2012-12-24,63,54,44,57,49,40,100,80,43,30.16,30.07,30.02,10,8,2,16,7,22,0.04,3,Rain,312
2012-12-25,57,50,43,52,44,39,94,82,53,30.15,30.02,29.93,10,8,2,15,4,21,0.46,6,Rain,128
2012-12-26,55,48,39,48,45,39,100,86,69,30.10,30.00,29.93,10,10,4,18,7,25,0.01,4,Rain,305
2012-12-27,55,47,39,42,39,37,93,70,51,30.18,30.12,30.08,10,10,10,13,4,21,0.00,2,Rain,339
2012-12-28,57,46,36,38,34,28,89,67,33,30.18,30.12,30.06,10,10,10,5,1,,0.00,2,,123
2012-12-29,53,46,37,45,42,37,97,84,64,30.08,30.03,29.97,10,9,3,21,7,26,0.38,5,Rain,123
2012-12-30,55,45,35,43,38,34,100,84,53,30.17,30.07,30.01,10,10,10,12,2,,0.00,3,,69
2012-12-31,57,46,34,37,34,30,96,71,36,30.26,30.23,30.18,10,10,10,13,3,,0.00,0,,356